Time;durP1;ratioP1;P1;durP2;ratioP2;P2;SDS_P1;SDS_P2;PMS_P1;PMS_P2;Temp;Humidity;BMP_temperature;BMP_pressure;BME280_temperature;BME280_humidity;BME280_pressure;Samples;Min_cycle;Max_cycle;Signal;HPM_P1;HPM_P2
2021/04/26 00:00:03;;;;;;;;;17.50;16.25;;;;;;;;3724421;38;20916;-64
2021/04/26 00:02:30;;;;;;;;;17.75;17.75;;;;;;;;3724531;37;18492;-63
2021/04/26 00:04:56;;;;;;;;;17.75;17.75;;;;;;;;3724709;37;21000;-64
2021/04/26 00:07:22;;;;;;;;;14.25;13.50;;;;;;;;3724989;37;20933;-64
2021/04/26 00:09:56;;;;;;;;;14.50;13.00;;;;;;;;3725230;38;18474;-64
2021/04/26 00:12:22;;;;;;;;;15.75;14.25;;;;;;;;3724958;37;20907;-64
2021/04/26 00:14:48;;;;;;;;;20.50;19.00;;;;;;;;3725013;37;20917;-62
2021/04/26 00:17:14;;;;;;;;;17.50;17.00;;;;;;;;3725045;37;20919;-65
2021/04/26 00:19:40;;;;;;;;;17.00;16.00;;;;;;;;3725080;38;18463;-63
2021/04/26 00:22:06;;;;;;;;;17.00;17.00;;;;;;;;3725174;38;18483;-63
2021/04/26 00:24:35;;;;;;;;;17.25;17.25;;;;;;;;3724802;38;20876;-64
2021/04/26 00:27:00;;;;;;;;;13.50;13.50;;;;;;;;3724937;38;20886;-64
2021/04/26 00:29:26;;;;;;;;;14.00;13.75;;;;;;;;3725019;37;18437;-63
2021/04/26 00:31:52;;;;;;;;;14.00;14.00;;;;;;;;3725111;37;18463;-64
2021/04/26 00:34:18;;;;;;;;;15.50;15.50;;;;;;;;3725097;37;18454;-64
2021/04/26 00:36:43;;;;;;;;;7.25;6.00;;;;;;;;3725196;37;18431;-62
2021/04/26 00:39:09;;;;;;;;;9.25;9.25;;;;;;;;3725127;37;18424;-64
2021/04/26 00:41:35;;;;;;;;;11.00;11.00;;;;;;;;3725074;38;18450;-64
2021/04/26 00:44:00;;;;;;;;;10.50;10.25;;;;;;;;3724900;37;18419;-63
2021/04/26 00:46:27;;;;;;;;;8.00;8.00;;;;;;;;3725070;37;18442;-63
2021/04/26 00:48:53;;;;;;;;;13.00;12.00;;;;;;;;3725022;37;20771;-64
2021/04/26 00:51:20;;;;;;;;;13.25;11.75;;;;;;;;3725163;38;18456;-64
2021/04/26 00:53:46;;;;;;;;;9.25;9.25;;;;;;;;3725086;37;18438;-63
2021/04/26 00:56:12;;;;;;;;;11.00;10.25;;;;;;;;3725165;38;20800;-65
2021/04/26 00:58:37;;;;;;;;;11.50;11.00;;;;;;;;3725215;37;18415;-64
2021/04/26 01:01:03;;;;;;;;;10.00;9.75;;;;;;;;3725092;37;18416;-66
2021/04/26 01:03:29;;;;;;;;;10.00;9.25;;;;;;;;3725012;37;18420;-65
2021/04/26 01:05:55;;;;;;;;;12.25;10.50;;;;;;;;3725051;38;18407;-63
2021/04/26 01:08:22;;;;;;;;;5.75;5.75;;;;;;;;3725268;37;18417;-61
2021/04/26 01:10:48;;;;;;;;;8.50;7.75;;;;;;;;3724798;37;20890;-61
2021/04/26 01:13:36;;;;;;;;;12.00;12.00;;;;;;;;3724717;37;20743;-61
2021/04/26 01:16:12;;;;;;;;;8.00;8.00;;;;;;;;3725092;37;20834;-63
2021/04/26 01:18:42;;;;;;;;;13.25;13.25;;;;;;;;3725043;37;20749;-62
2021/04/26 01:21:32;;;;;;;;;9.75;9.00;;;;;;;;3725365;38;20805;-62
2021/04/26 01:24:30;;;;;;;;;9.00;8.00;;;;;;;;3732006;37;20751;-64
2021/04/26 01:27:05;;;;;;;;;12.00;12.00;;;;;;;;3734761;37;20793;-65
2021/04/26 01:30:02;;;;;;;;;10.75;10.50;;;;;;;;3734218;38;20805;-62
2021/04/26 01:32:42;;;;;;;;;11.25;11.25;;;;;;;;3733486;38;20734;-65
2021/04/26 01:35:10;;;;;;;;;11.50;11.25;;;;;;;;3734377;37;20789;-61
2021/04/26 01:37:36;;;;;;;;;11.25;10.50;;;;;;;;3734037;38;20775;-62
2021/04/26 01:40:07;;;;;;;;;7.25;6.50;;;;;;;;3727352;37;20786;-63
2021/04/26 01:42:33;;;;;;;;;12.00;12.00;;;;;;;;3725303;38;20759;-63
2021/04/26 01:45:05;;;;;;;;;10.50;10.50;;;;;;;;3725435;38;20773;-63
2021/04/26 01:47:32;;;;;;;;;11.00;11.00;;;;;;;;3727891;37;20774;-62
2021/04/26 01:50:00;;;;;;;;;11.00;11.00;;;;;;;;3730443;37;20751;-62
2021/04/26 01:52:27;;;;;;;;;10.25;10.25;;;;;;;;3725860;37;20721;-62
2021/04/26 01:54:55;;;;;;;;;12.00;10.50;;;;;;;;3724686;37;20765;-62
2021/04/26 01:57:23;;;;;;;;;10.75;10.00;;;;;;;;3724809;37;20757;-65
2021/04/26 01:59:49;;;;;;;;;11.25;11.25;;;;;;;;3725202;38;20765;-62
2021/04/26 02:02:16;;;;;;;;;12.75;11.75;;;;;;;;3725053;37;20772;-64
2021/04/26 02:04:42;;;;;;;;;6.00;6.00;;;;;;;;3725229;37;20749;-65
2021/04/26 02:07:09;;;;;;;;;10.75;10.75;;;;;;;;3724357;37;20714;-64
2021/04/26 02:09:39;;;;;;;;;13.25;12.00;;;;;;;;3724122;38;20727;-63
2021/04/26 02:12:06;;;;;;;;;11.00;10.00;;;;;;;;3724595;37;20730;-63
2021/04/26 02:14:33;;;;;;;;;9.25;9.25;;;;;;;;3725062;38;20743;-64
2021/04/26 02:16:59;;;;;;;;;12.00;12.00;;;;;;;;3725008;37;20738;-63
2021/04/26 02:19:31;;;;;;;;;10.00;10.00;;;;;;;;3725031;37;20729;-63
2021/04/26 02:21:58;;;;;;;;;10.00;10.00;;;;;;;;3725039;38;20720;-63
2021/04/26 02:24:24;;;;;;;;;10.50;10.50;;;;;;;;3724878;38;20717;-63
2021/04/26 02:26:59;;;;;;;;;11.50;11.00;;;;;;;;3725100;37;20738;-64
2021/04/26 02:29:25;;;;;;;;;13.50;11.75;;;;;;;;3725233;37;18305;-63
2021/04/26 02:31:54;;;;;;;;;10.50;9.50;;;;;;;;3725034;37;20686;-64
2021/04/26 02:34:24;;;;;;;;;9.00;9.00;;;;;;;;3725129;37;20710;-62
2021/04/26 02:36:52;;;;;;;;;11.00;10.25;;;;;;;;3724990;38;20677;-63
2021/04/26 02:39:18;;;;;;;;;8.00;8.00;;;;;;;;3725004;38;20689;-64
2021/04/26 02:41:46;;;;;;;;;10.25;10.25;;;;;;;;3725049;38;20649;-62
2021/04/26 02:44:19;;;;;;;;;10.75;10.75;;;;;;;;3725098;38;20679;-64
2021/04/26 02:46:45;;;;;;;;;11.00;8.75;;;;;;;;3724958;37;20672;-62
2021/04/26 02:49:11;;;;;;;;;7.25;6.75;;;;;;;;3724947;38;20660;-61
2021/04/26 02:51:44;;;;;;;;;9.00;9.00;;;;;;;;3725108;38;20657;-65
2021/04/26 02:54:10;;;;;;;;;8.25;7.75;;;;;;;;3725065;37;20664;-64
2021/04/26 02:56:37;;;;;;;;;8.75;8.75;;;;;;;;3725043;38;20618;-63
2021/04/26 02:59:07;;;;;;;;;7.75;7.75;;;;;;;;3725076;37;20640;-63
2021/04/26 03:01:34;;;;;;;;;9.25;9.25;;;;;;;;3724761;38;21223;-63
2021/04/26 03:04:00;;;;;;;;;6.00;6.00;;;;;;;;3724626;37;20837;-62
2021/04/26 03:06:27;;;;;;;;;9.00;9.00;;;;;;;;3724937;38;20621;-64
2021/04/26 03:08:53;;;;;;;;;7.25;7.25;;;;;;;;3724120;38;20812;-64
2021/04/26 03:11:22;;;;;;;;;7.25;7.25;;;;;;;;3724411;38;20628;-63
2021/04/26 03:13:49;;;;;;;;;7.25;7.25;;;;;;;;3724816;37;20623;-63
2021/04/26 03:16:16;;;;;;;;;9.75;9.75;;;;;;;;3725088;37;18245;-64
2021/04/26 03:18:42;;;;;;;;;9.00;9.00;;;;;;;;3725049;38;20606;-62
2021/04/26 03:21:15;;;;;;;;;7.50;7.50;;;;;;;;3725090;37;20602;-64
2021/04/26 03:23:42;;;;;;;;;9.75;9.75;;;;;;;;3725260;37;20612;-63
2021/04/26 03:26:08;;;;;;;;;9.00;9.00;;;;;;;;3725229;38;20583;-63
2021/04/26 03:28:36;;;;;;;;;7.25;7.25;;;;;;;;3725081;37;20592;-63
2021/04/26 03:31:04;;;;;;;;;8.50;8.00;;;;;;;;3725138;37;20600;-63
2021/04/26 03:33:39;;;;;;;;;8.00;8.00;;;;;;;;3725005;38;20577;-64
2021/04/26 03:36:06;;;;;;;;;6.00;6.00;;;;;;;;3724991;37;20561;-61
2021/04/26 03:38:31;;;;;;;;;5.00;4.75;;;;;;;;3725000;38;20568;-63
2021/04/26 03:40:58;;;;;;;;;7.25;7.00;;;;;;;;3725169;37;20574;-63
2021/04/26 03:43:24;;;;;;;;;9.00;7.25;;;;;;;;3725238;38;18195;-61
2021/04/26 03:45:50;;;;;;;;;8.00;7.25;;;;;;;;3724980;37;20569;-62
2021/04/26 03:48:16;;;;;;;;;9.00;8.25;;;;;;;;3724844;37;20607;-62
2021/04/26 03:50:42;;;;;;;;;4.75;4.50;;;;;;;;3725293;38;20654;-64
2021/04/26 03:53:08;;;;;;;;;7.50;7.00;;;;;;;;3724930;38;18205;-63
2021/04/26 03:55:34;;;;;;;;;6.50;6.50;;;;;;;;3724992;38;20572;-62
2021/04/26 03:57:59;;;;;;;;;6.75;6.75;;;;;;;;3725287;38;18193;-62
2021/04/26 04:00:25;;;;;;;;;6.75;6.75;;;;;;;;3725018;38;18174;-63
2021/04/26 04:02:51;;;;;;;;;11.00;10.00;;;;;;;;3725421;38;18184;-64
2021/04/26 04:05:18;;;;;;;;;7.00;7.00;;;;;;;;3725165;37;18182;-61
2021/04/26 04:07:43;;;;;;;;;9.75;8.00;;;;;;;;3725271;38;18175;-63
2021/04/26 04:10:10;;;;;;;;;8.00;8.00;;;;;;;;3725163;38;20518;-63
2021/04/26 04:12:36;;;;;;;;;6.75;6.75;;;;;;;;3725174;37;18153;-63
2021/04/26 04:15:03;;;;;;;;;9.00;7.00;;;;;;;;3725147;37;20514;-61
2021/04/26 04:17:29;;;;;;;;;7.00;6.50;;;;;;;;3725102;37;20515;-62
2021/04/26 04:19:54;;;;;;;;;6.00;5.75;;;;;;;;3725010;38;20529;-61
2021/04/26 04:22:21;;;;;;;;;7.00;7.00;;;;;;;;3725310;37;18146;-62
2021/04/26 04:24:47;;;;;;;;;6.50;5.00;;;;;;;;3725703;38;18129;-63
2021/04/26 04:27:13;;;;;;;;;8.50;8.50;;;;;;;;3726981;37;20519;-62
2021/04/26 04:29:39;;;;;;;;;8.00;7.25;;;;;;;;3725353;37;18156;-62
2021/04/26 04:32:06;;;;;;;;;9.00;9.00;;;;;;;;3725279;38;18146;-62
2021/04/26 04:34:32;;;;;;;;;8.50;8.00;;;;;;;;3725268;38;18114;-63
2021/04/26 04:36:59;;;;;;;;;7.25;7.25;;;;;;;;3725373;38;20504;-61
2021/04/26 04:39:24;;;;;;;;;6.00;5.50;;;;;;;;3725159;38;20486;-63
2021/04/26 04:41:50;;;;;;;;;7.00;7.00;;;;;;;;3725095;38;20488;-63
2021/04/26 04:44:16;;;;;;;;;8.00;7.75;;;;;;;;3725404;37;18099;-63
2021/04/26 04:46:43;;;;;;;;;7.75;7.00;;;;;;;;3724969;38;18122;-61
2021/04/26 04:49:09;;;;;;;;;8.00;6.50;;;;;;;;3725241;37;18107;-62
2021/04/26 04:51:35;;;;;;;;;8.25;8.00;;;;;;;;3725242;38;20488;-63
2021/04/26 04:54:01;;;;;;;;;8.00;8.00;;;;;;;;3725397;37;18121;-64
2021/04/26 04:56:27;;;;;;;;;8.00;8.00;;;;;;;;3725189;37;20459;-64
2021/04/26 04:58:53;;;;;;;;;7.75;7.75;;;;;;;;3725386;38;20478;-62
2021/04/26 05:01:19;;;;;;;;;12.50;12.00;;;;;;;;3725132;37;18076;-65
2021/04/26 05:03:45;;;;;;;;;7.00;7.00;;;;;;;;3725228;38;18071;-65
2021/04/26 05:06:10;;;;;;;;;10.50;10.50;;;;;;;;3725203;37;18071;-65
2021/04/26 05:08:36;;;;;;;;;10.00;9.00;;;;;;;;3725413;37;18056;-62
2021/04/26 05:11:02;;;;;;;;;10.75;10.75;;;;;;;;3725076;37;18084;-63
2021/04/26 05:13:28;;;;;;;;;10.25;10.25;;;;;;;;3725487;37;18047;-62
2021/04/26 05:15:54;;;;;;;;;8.00;8.00;;;;;;;;3725225;37;20411;-63
2021/04/26 05:18:21;;;;;;;;;5.00;4.00;;;;;;;;3725365;38;18045;-64
2021/04/26 05:20:47;;;;;;;;;5.75;5.75;;;;;;;;3725364;38;20365;-63
2021/04/26 05:23:14;;;;;;;;;10.50;10.50;;;;;;;;3725177;38;18147;-65
2021/04/26 05:25:40;;;;;;;;;10.00;10.00;;;;;;;;3725451;37;20406;-63
2021/04/26 05:28:06;;;;;;;;;8.25;7.50;;;;;;;;3725304;38;18036;-63
2021/04/26 05:30:33;;;;;;;;;10.25;9.50;;;;;;;;3725306;38;18049;-64
2021/04/26 05:33:00;;;;;;;;;8.50;8.50;;;;;;;;3725338;38;20408;-62
2021/04/26 05:35:26;;;;;;;;;8.75;8.75;;;;;;;;3725181;37;20363;-63
2021/04/26 05:37:52;;;;;;;;;10.00;10.00;;;;;;;;3724752;38;20371;-62
2021/04/26 05:40:19;;;;;;;;;8.00;8.00;;;;;;;;3725269;37;20432;-63
2021/04/26 05:42:44;;;;;;;;;10.25;10.25;;;;;;;;3725022;37;20378;-63
2021/04/26 05:45:11;;;;;;;;;19.75;17.75;;;;;;;;3725355;37;18026;-65
2021/04/26 05:47:37;;;;;;;;;12.75;12.75;;;;;;;;3725306;38;18034;-64
2021/04/26 05:50:03;;;;;;;;;9.00;9.00;;;;;;;;3725389;37;20380;-64
2021/04/26 05:52:29;;;;;;;;;14.75;13.00;;;;;;;;3725364;38;18006;-61
2021/04/26 05:54:56;;;;;;;;;9.00;9.00;;;;;;;;3725485;37;20383;-62
2021/04/26 05:57:22;;;;;;;;;9.00;9.00;;;;;;;;3725350;37;18000;-63
2021/04/26 05:59:55;;;;;;;;;11.00;10.25;;;;;;;;3724644;37;20387;-64
2021/04/26 06:02:21;;;;;;;;;12.00;12.00;;;;;;;;3725407;37;18032;-65
2021/04/26 06:04:47;;;;;;;;;15.50;14.75;;;;;;;;3725158;38;20446;-63
2021/04/26 06:07:13;;;;;;;;;16.75;16.25;;;;;;;;3725247;37;20435;-65
2021/04/26 06:09:39;;;;;;;;;12.25;10.00;;;;;;;;3724876;37;17985;-63
2021/04/26 06:12:05;;;;;;;;;9.00;8.25;;;;;;;;3725245;38;20402;-62
2021/04/26 06:14:31;;;;;;;;;8.50;8.50;;;;;;;;3725279;38;18004;-62
2021/04/26 06:16:57;;;;;;;;;9.50;9.50;;;;;;;;3725483;38;20383;-63
2021/04/26 06:19:23;;;;;;;;;8.75;8.50;;;;;;;;3725628;38;17969;-64
2021/04/26 06:21:48;;;;;;;;;6.00;6.00;;;;;;;;3725538;37;17998;-63
2021/04/26 06:24:15;;;;;;;;;8.00;8.00;;;;;;;;3725304;37;17989;-63
2021/04/26 06:26:42;;;;;;;;;10.25;10.25;;;;;;;;3725337;37;18004;-63
2021/04/26 06:29:08;;;;;;;;;8.00;7.75;;;;;;;;3725243;38;20388;-62
2021/04/26 06:31:34;;;;;;;;;10.00;9.00;;;;;;;;3725430;38;20361;-62
2021/04/26 06:34:00;;;;;;;;;9.25;9.25;;;;;;;;3725309;38;17974;-62
2021/04/26 06:36:26;;;;;;;;;9.25;9.25;;;;;;;;3724888;37;17954;-63
2021/04/26 06:38:56;;;;;;;;;9.00;7.50;;;;;;;;3724878;38;17966;-65
2021/04/26 06:41:23;;;;;;;;;7.25;7.25;;;;;;;;3724788;37;17978;-67
2021/04/26 06:43:48;;;;;;;;;9.00;9.00;;;;;;;;3724272;38;20297;-62
2021/04/26 06:46:14;;;;;;;;;8.00;7.75;;;;;;;;3724729;37;20320;-62
2021/04/26 06:48:40;;;;;;;;;6.50;6.50;;;;;;;;3724670;37;17934;-62
2021/04/26 06:51:05;;;;;;;;;7.00;6.50;;;;;;;;3724844;38;17939;-62
2021/04/26 06:53:31;;;;;;;;;8.00;8.00;;;;;;;;3725565;38;17953;-64
2021/04/26 06:55:57;;;;;;;;;7.75;7.75;;;;;;;;3725227;37;17953;-64
2021/04/26 06:58:23;;;;;;;;;7.75;7.50;;;;;;;;3725793;38;17944;-63
2021/04/26 07:00:49;;;;;;;;;8.75;8.75;;;;;;;;3725430;37;17925;-62
2021/04/26 07:03:15;;;;;;;;;9.25;9.25;;;;;;;;3725869;37;17919;-64
2021/04/26 07:05:40;;;;;;;;;7.50;7.50;;;;;;;;3728039;37;17918;-65
2021/04/26 07:08:06;;;;;;;;;9.25;9.25;;;;;;;;3726807;38;17910;-64
2021/04/26 07:10:33;;;;;;;;;9.75;9.25;;;;;;;;3725441;37;17937;-63
2021/04/26 07:12:59;;;;;;;;;8.75;8.75;;;;;;;;3725448;37;17919;-65
2021/04/26 07:15:25;;;;;;;;;7.00;6.00;;;;;;;;3725024;37;20278;-62
2021/04/26 07:17:51;;;;;;;;;10.50;9.25;;;;;;;;3725199;38;20272;-62
2021/04/26 07:20:18;;;;;;;;;6.00;6.00;;;;;;;;3725309;37;17903;-63
2021/04/26 07:22:43;;;;;;;;;9.25;8.50;;;;;;;;3725270;37;20308;-63
2021/04/26 07:25:10;;;;;;;;;10.50;10.00;;;;;;;;3725286;37;20279;-63
2021/04/26 07:27:36;;;;;;;;;7.00;6.50;;;;;;;;3725228;37;17880;-64
2021/04/26 07:30:05;;;;;;;;;8.75;8.75;;;;;;;;3725147;37;20282;-63
2021/04/26 07:32:31;;;;;;;;;8.25;6.25;;;;;;;;3725379;37;17893;-64
2021/04/26 07:34:57;;;;;;;;;6.25;6.25;;;;;;;;3725079;38;20270;-63
2021/04/26 07:37:24;;;;;;;;;7.00;7.00;;;;;;;;3725295;38;17899;-63
2021/04/26 07:39:51;;;;;;;;;8.25;7.25;;;;;;;;3725253;38;17876;-64
2021/04/26 07:42:16;;;;;;;;;4.00;3.25;;;;;;;;3725536;38;20235;-63
2021/04/26 07:44:42;;;;;;;;;8.25;8.25;;;;;;;;3725369;37;20261;-62
2021/04/26 07:47:09;;;;;;;;;8.00;8.00;;;;;;;;3725240;37;17852;-63
2021/04/26 07:49:35;;;;;;;;;6.00;6.00;;;;;;;;3725446;37;17860;-62
2021/04/26 07:52:01;;;;;;;;;7.50;7.00;;;;;;;;3725296;37;20242;-63
2021/04/26 07:54:27;;;;;;;;;7.00;7.00;;;;;;;;3725179;37;17869;-63
2021/04/26 07:56:52;;;;;;;;;7.50;7.50;;;;;;;;3725046;38;20222;-63
2021/04/26 07:59:21;;;;;;;;;5.25;4.75;;;;;;;;3725250;38;20216;-63
2021/04/26 08:01:48;;;;;;;;;6.50;6.50;;;;;;;;3725271;37;17843;-62
2021/04/26 08:04:20;;;;;;;;;8.50;8.50;;;;;;;;3725102;37;20240;-64
2021/04/26 08:06:45;;;;;;;;;7.75;7.75;;;;;;;;3725070;37;20211;-63
2021/04/26 08:09:11;;;;;;;;;9.00;9.00;;;;;;;;3725084;37;20233;-63
2021/04/26 08:11:37;;;;;;;;;5.00;5.00;;;;;;;;3725370;38;17825;-64
2021/04/26 08:14:03;;;;;;;;;6.75;6.75;;;;;;;;3725174;38;17833;-64
2021/04/26 08:16:29;;;;;;;;;10.00;9.00;;;;;;;;3725005;38;17812;-62
2021/04/26 08:18:55;;;;;;;;;6.00;6.00;;;;;;;;3725154;38;20211;-61
2021/04/26 08:21:21;;;;;;;;;6.00;6.00;;;;;;;;3724690;37;20182;-63
2021/04/26 08:23:47;;;;;;;;;6.50;6.50;;;;;;;;3725142;38;17822;-63
2021/04/26 08:26:16;;;;;;;;;7.50;7.50;;;;;;;;3725196;38;20217;-63
2021/04/26 08:28:42;;;;;;;;;8.25;8.00;;;;;;;;3725049;38;17831;-62
2021/04/26 08:31:08;;;;;;;;;6.25;6.25;;;;;;;;3725202;38;20199;-63
2021/04/26 08:33:35;;;;;;;;;6.00;6.00;;;;;;;;3725213;38;17834;-63
2021/04/26 08:36:01;;;;;;;;;5.75;5.50;;;;;;;;3724788;37;20172;-63
2021/04/26 08:38:27;;;;;;;;;7.25;7.25;;;;;;;;3725115;38;20174;-63
2021/04/26 08:40:53;;;;;;;;;7.00;7.00;;;;;;;;3725163;37;17780;-65
2021/04/26 08:43:19;;;;;;;;;7.50;7.50;;;;;;;;3725181;37;17803;-65
2021/04/26 08:45:45;;;;;;;;;7.00;7.00;;;;;;;;3725149;38;20145;-63
2021/04/26 08:48:11;;;;;;;;;8.00;6.50;;;;;;;;3725241;38;17788;-63
2021/04/26 08:50:44;;;;;;;;;6.75;6.00;;;;;;;;3725258;37;17794;-63
2021/04/26 08:53:09;;;;;;;;;6.50;6.50;;;;;;;;3725188;38;20153;-63
2021/04/26 08:55:36;;;;;;;;;8.25;7.75;;;;;;;;3725061;37;20150;-61
2021/04/26 08:58:06;;;;;;;;;6.50;6.50;;;;;;;;3725622;37;20166;-65
2021/04/26 09:00:32;;;;;;;;;8.00;8.00;;;;;;;;3724953;38;17761;-63
2021/04/26 09:03:02;;;;;;;;;7.00;6.00;;;;;;;;3725309;38;20135;-63
2021/04/26 09:05:39;;;;;;;;;5.50;5.50;;;;;;;;3725244;37;17751;-61
2021/04/26 09:08:08;;;;;;;;;6.00;6.00;;;;;;;;3724848;37;20153;-62
2021/04/26 09:10:35;;;;;;;;;8.00;8.00;;;;;;;;3725086;38;20126;-62
2021/04/26 09:13:20;;;;;;;;;8.00;8.00;;;;;;;;3725319;38;20117;-63
2021/04/26 09:16:08;;;;;;;;;6.75;6.75;;;;;;;;3725102;38;20140;-60
2021/04/26 09:18:48;;;;;;;;;6.00;6.00;;;;;;;;3725048;38;20154;-64
2021/04/26 09:21:17;;;;;;;;;5.50;5.50;;;;;;;;3725269;38;20130;-62
2021/04/26 09:23:44;;;;;;;;;5.75;5.75;;;;;;;;3725154;38;20109;-64
2021/04/26 09:26:27;;;;;;;;;5.50;5.50;;;;;;;;3725199;38;20124;-64
2021/04/26 09:29:10;;;;;;;;;7.00;7.00;;;;;;;;3725353;37;20119;-62
2021/04/26 09:31:41;;;;;;;;;5.75;5.75;;;;;;;;3725326;37;20129;-62
2021/04/26 09:34:06;;;;;;;;;6.25;6.00;;;;;;;;3724952;38;20111;-62
2021/04/26 09:36:33;;;;;;;;;7.25;7.00;;;;;;;;3725100;37;20092;-63
2021/04/26 09:39:03;;;;;;;;;7.50;6.75;;;;;;;;3724780;38;17733;-62
2021/04/26 09:41:33;;;;;;;;;7.50;7.25;;;;;;;;3725274;38;20125;-63
2021/04/26 09:44:09;;;;;;;;;7.00;7.00;;;;;;;;3726788;37;20087;-63
2021/04/26 09:46:49;;;;;;;;;7.50;6.75;;;;;;;;3725093;38;20079;-63
2021/04/26 09:49:23;;;;;;;;;7.50;7.50;;;;;;;;3724745;37;20099;-64
2021/04/26 09:51:53;;;;;;;;;6.75;6.75;;;;;;;;3725114;37;20071;-64
2021/04/26 09:54:39;;;;;;;;;7.00;7.00;;;;;;;;3725211;37;20085;-64
2021/04/26 09:57:05;;;;;;;;;8.00;8.00;;;;;;;;3724683;37;20136;-63
2021/04/26 09:59:30;;;;;;;;;8.00;7.50;;;;;;;;3725101;37;20101;-62
2021/04/26 10:01:57;;;;;;;;;9.00;9.00;;;;;;;;3725055;37;20063;-63
2021/04/26 10:04:23;;;;;;;;;7.75;7.75;;;;;;;;3724664;37;17691;-63
2021/04/26 10:06:50;;;;;;;;;8.00;8.00;;;;;;;;3724605;38;20050;-64
2021/04/26 10:09:17;;;;;;;;;10.00;10.00;;;;;;;;3724980;37;17684;-63
2021/04/26 10:11:42;;;;;;;;;7.00;5.25;;;;;;;;3724719;37;20102;-63
2021/04/26 10:14:10;;;;;;;;;9.00;9.00;;;;;;;;3725335;38;20071;-64
2021/04/26 10:16:56;;;;;;;;;6.00;6.00;;;;;;;;3725367;38;17685;-63
2021/04/26 10:19:32;;;;;;;;;9.25;9.25;;;;;;;;3725043;38;20054;-63
2021/04/26 10:21:59;;;;;;;;;6.75;6.00;;;;;;;;3725185;38;20055;-64
2021/04/26 10:24:26;;;;;;;;;8.50;8.50;;;;;;;;3725310;37;20048;-64
2021/04/26 10:26:53;;;;;;;;;8.50;8.50;;;;;;;;3725132;38;20057;-63
2021/04/26 10:29:34;;;;;;;;;8.00;8.00;;;;;;;;3724952;37;20174;-63
2021/04/26 10:32:05;;;;;;;;;7.00;7.00;;;;;;;;3725160;37;20016;-64
2021/04/26 10:35:02;;;;;;;;;9.50;9.50;;;;;;;;3725022;38;20047;-63
2021/04/26 10:37:29;;;;;;;;;8.50;8.50;;;;;;;;3725256;37;20067;-64
2021/04/26 10:40:13;;;;;;;;;9.00;8.00;;;;;;;;3725323;37;20071;-62
2021/04/26 10:43:07;;;;;;;;;8.00;8.00;;;;;;;;3725240;37;20013;-63
2021/04/26 10:45:38;;;;;;;;;8.00;7.25;;;;;;;;3725049;38;20038;-64
2021/04/26 10:48:10;;;;;;;;;11.00;10.25;;;;;;;;3725052;37;20024;-64
2021/04/26 10:50:42;;;;;;;;;12.25;12.25;;;;;;;;3725115;38;20059;-63
2021/04/26 10:53:09;;;;;;;;;10.25;10.25;;;;;;;;3725031;38;20061;-64
2021/04/26 10:55:40;;;;;;;;;14.25;13.75;;;;;;;;3725040;37;20047;-64
2021/04/26 10:58:25;;;;;;;;;9.50;8.75;;;;;;;;3725108;37;20071;-63
2021/04/26 11:00:51;;;;;;;;;11.25;11.25;;;;;;;;3725092;37;20010;-63
2021/04/26 11:03:36;;;;;;;;;9.50;9.50;;;;;;;;3724970;37;20013;-64
2021/04/26 11:06:09;;;;;;;;;10.00;9.50;;;;;;;;3725218;37;20092;-64
2021/04/26 11:08:41;;;;;;;;;9.75;9.75;;;;;;;;3725088;38;20027;-63
2021/04/26 11:13:56;;;;;;;;;12.50;12.50;;;;;;;;3725088;38;19999;-64
2021/04/26 11:16:23;;;;;;;;;10.00;10.00;;;;;;;;3725192;38;20028;-63
2021/04/26 11:19:14;;;;;;;;;10.00;10.00;;;;;;;;3725194;37;20007;-63
2021/04/26 11:21:58;;;;;;;;;11.00;11.00;;;;;;;;3725215;38;20050;-64
2021/04/26 11:24:43;;;;;;;;;12.00;11.25;;;;;;;;3725292;38;20019;-63
2021/04/26 11:27:20;;;;;;;;;10.75;10.75;;;;;;;;3724701;37;20002;-63
2021/04/26 11:30:09;;;;;;;;;13.50;11.50;;;;;;;;3724963;37;19976;-64
2021/04/26 11:32:34;;;;;;;;;13.25;13.25;;;;;;;;3725074;37;20009;-65
2021/04/26 11:35:07;;;;;;;;;10.50;10.50;;;;;;;;3725103;38;20001;-64
2021/04/26 11:37:37;;;;;;;;;16.00;15.00;;;;;;;;3725315;37;17561;-65
2021/04/26 11:40:19;;;;;;;;;8.00;7.50;;;;;;;;3725349;37;20007;-63
2021/04/26 11:42:45;;;;;;;;;13.00;12.00;;;;;;;;3725016;37;19944;-63
2021/04/26 11:45:12;;;;;;;;;12.75;12.00;;;;;;;;3725046;37;19966;-64
2021/04/26 11:47:37;;;;;;;;;13.75;13.75;;;;;;;;3725119;38;19967;-64
2021/04/26 11:50:04;;;;;;;;;11.50;10.75;;;;;;;;3725225;38;20115;-64
2021/04/26 11:52:35;;;;;;;;;10.25;10.25;;;;;;;;3725261;38;17539;-62
2021/04/26 11:55:09;;;;;;;;;14.50;13.00;;;;;;;;3725065;38;19963;-67
2021/04/26 11:57:39;;;;;;;;;12.00;12.00;;;;;;;;3725128;37;19967;-63
2021/04/26 12:00:08;;;;;;;;;14.00;14.00;;;;;;;;3725146;38;20961;-64
2021/04/26 12:02:44;;;;;;;;;14.50;13.25;;;;;;;;3725184;38;20952;-64
2021/04/26 12:05:12;;;;;;;;;11.50;11.50;;;;;;;;3724607;38;20929;-64
2021/04/26 12:07:38;;;;;;;;;15.75;15.25;;;;;;;;3724870;37;20947;-63
2021/04/26 12:10:09;;;;;;;;;15.25;15.25;;;;;;;;3725310;38;20963;-62
2021/04/26 12:12:35;;;;;;;;;9.00;9.00;;;;;;;;3725089;37;18505;-64
2021/04/26 12:15:06;;;;;;;;;16.50;14.25;;;;;;;;3725353;37;20891;-63
2021/04/26 12:17:33;;;;;;;;;12.00;11.00;;;;;;;;3725492;38;20944;-63
2021/04/26 12:20:11;;;;;;;;;11.00;11.00;;;;;;;;3725993;37;20923;-69
2021/04/26 12:22:37;;;;;;;;;14.25;13.75;;;;;;;;3726741;37;20933;-65
2021/04/26 12:25:05;;;;;;;;;13.00;13.00;;;;;;;;3725952;37;20916;-64
2021/04/26 12:27:31;;;;;;;;;11.25;11.00;;;;;;;;3725412;37;18513;-64
2021/04/26 12:30:16;;;;;;;;;9.00;9.00;;;;;;;;3725341;38;20912;-64
2021/04/26 12:32:42;;;;;;;;;11.00;10.75;;;;;;;;3725424;38;20907;-63
2021/04/26 12:35:16;;;;;;;;;13.25;12.00;;;;;;;;3725308;37;20915;-62
2021/04/26 12:37:43;;;;;;;;;17.25;16.75;;;;;;;;3725452;37;20889;-64
2021/04/26 12:40:32;;;;;;;;;10.50;9.75;;;;;;;;3725278;37;20930;-65
2021/04/26 12:43:02;;;;;;;;;12.75;12.50;;;;;;;;3725267;38;20925;-66
2021/04/26 12:45:48;;;;;;;;;6.50;6.00;;;;;;;;3725168;37;20921;-62
2021/04/26 12:48:16;;;;;;;;;11.00;10.00;;;;;;;;3725252;37;20879;-62
2021/04/26 12:50:47;;;;;;;;;9.25;8.00;;;;;;;;3725173;38;20858;-63
2021/04/26 12:53:29;;;;;;;;;11.00;10.75;;;;;;;;3725323;37;20871;-62
2021/04/26 12:56:10;;;;;;;;;8.25;8.25;;;;;;;;3725144;37;20893;-63
2021/04/26 12:58:40;;;;;;;;;10.25;9.50;;;;;;;;3725206;38;20850;-61
2021/04/26 13:01:32;;;;;;;;;8.75;8.50;;;;;;;;3725155;38;20888;-63
2021/04/26 13:03:58;;;;;;;;;11.50;11.00;;;;;;;;3725374;38;20884;-61
2021/04/26 13:06:26;;;;;;;;;9.00;9.00;;;;;;;;3725262;38;20954;-62
2021/04/26 13:08:54;;;;;;;;;8.75;8.75;;;;;;;;3724938;38;20832;-61
2021/04/26 13:11:38;;;;;;;;;9.25;9.25;;;;;;;;3725385;38;20822;-62
2021/04/26 13:14:21;;;;;;;;;11.00;11.00;;;;;;;;3725225;37;20864;-62
2021/04/26 13:16:57;;;;;;;;;11.25;10.75;;;;;;;;3725549;38;20825;-62
2021/04/26 13:19:25;;;;;;;;;8.00;8.00;;;;;;;;3725400;37;20848;-65
2021/04/26 13:21:51;;;;;;;;;10.00;9.25;;;;;;;;3725241;37;20801;-63
2021/04/26 13:24:21;;;;;;;;;11.50;11.50;;;;;;;;3725230;37;20808;-63
2021/04/26 13:26:57;;;;;;;;;10.25;10.25;;;;;;;;3725275;37;18426;-61
2021/04/26 13:29:24;;;;;;;;;10.75;10.75;;;;;;;;3724766;37;20825;-62
2021/04/26 13:31:54;;;;;;;;;9.75;9.75;;;;;;;;3724844;38;20879;-63
2021/04/26 13:34:20;;;;;;;;;9.75;9.50;;;;;;;;3724808;37;20845;-61
2021/04/26 13:36:46;;;;;;;;;9.75;9.75;;;;;;;;3725116;38;20781;-63
2021/04/26 13:39:13;;;;;;;;;10.50;10.50;;;;;;;;3725046;37;18412;-63
2021/04/26 13:41:40;;;;;;;;;10.50;9.50;;;;;;;;3725357;37;21105;-62
2021/04/26 13:44:06;;;;;;;;;10.75;10.75;;;;;;;;3725486;37;20814;-62
2021/04/26 13:46:32;;;;;;;;;11.00;10.25;;;;;;;;3725000;38;20792;-62
2021/04/26 13:48:58;;;;;;;;;10.25;10.25;;;;;;;;3725156;38;20807;-62
2021/04/26 13:51:25;;;;;;;;;8.50;8.00;;;;;;;;3725166;37;18387;-63
2021/04/26 13:53:52;;;;;;;;;8.50;8.50;;;;;;;;3725446;38;20781;-62
2021/04/26 13:56:18;;;;;;;;;9.50;9.50;;;;;;;;3724891;37;20758;-63
2021/04/26 13:58:44;;;;;;;;;12.25;11.50;;;;;;;;3724745;37;20810;-62
2021/04/26 14:01:10;;;;;;;;;11.00;11.00;;;;;;;;3725076;37;20817;-61
2021/04/26 14:03:37;;;;;;;;;11.25;11.25;;;;;;;;3725358;38;20750;-61
2021/04/26 14:06:03;;;;;;;;;9.00;9.00;;;;;;;;3725502;37;18387;-62
2021/04/26 14:08:35;;;;;;;;;13.25;12.75;;;;;;;;3725168;38;20763;-61
2021/04/26 14:11:02;;;;;;;;;13.00;12.50;;;;;;;;3725211;38;20783;-62
2021/04/26 14:13:29;;;;;;;;;10.00;9.25;;;;;;;;3725338;37;20756;-62
2021/04/26 14:15:55;;;;;;;;;12.25;12.00;;;;;;;;3725268;38;20739;-62
2021/04/26 14:18:21;;;;;;;;;11.00;11.00;;;;;;;;3724864;37;20779;-62
2021/04/26 14:20:49;;;;;;;;;9.00;9.00;;;;;;;;3725162;37;18358;-61
2021/04/26 14:23:15;;;;;;;;;11.50;11.50;;;;;;;;3725033;38;20767;-63
2021/04/26 14:25:41;;;;;;;;;12.50;12.50;;;;;;;;3725212;37;20808;-64
2021/04/26 14:28:10;;;;;;;;;19.00;15.50;;;;;;;;3725242;38;18352;-63
2021/04/26 14:30:36;;;;;;;;;13.00;12.75;;;;;;;;3725314;37;20765;-62
2021/04/26 14:33:02;;;;;;;;;13.75;12.75;;;;;;;;3726072;37;20778;-64
2021/04/26 14:35:28;;;;;;;;;14.25;14.00;;;;;;;;3725620;37;18359;-62
2021/04/26 14:37:55;;;;;;;;;13.50;13.25;;;;;;;;3725763;38;18313;-63
2021/04/26 14:40:22;;;;;;;;;16.00;16.00;;;;;;;;3728219;38;18338;-63
2021/04/26 14:42:48;;;;;;;;;14.25;14.00;;;;;;;;3731180;37;20758;-62
2021/04/26 14:45:14;;;;;;;;;9.00;9.00;;;;;;;;3731026;38;20761;-63